Red de Estaciones Meteorológicas Automáticas RedMeteo.cl versión 3.0 (Logo RedMeteo)

 ____          _ __  __      _                  _   _____  ___
|  _ \ ___  __| |  \/  | ___| |_ ___  ___   ___| | |___ / / _ \ 
| |_) / _ \/ _` | |\/| |/ _ \ __/ _ \/ _ \ / __| |   |_ \| | | | 
|  _ <  __/ (_| | |  | |  __/ ||  __/ (_) | (__| |  ___) | |_| | 
|_| \_\___|\__,_|_|  |_|\___|\__\___|\___(_)___|_| |____(_)___/
Vuelve aquí a la versión interactiva de RedMeteo.cl
Datos actualizados: 2026-09-01 04:16:06 UTC
Nuestro sistema se actualiza cada 10 minutos, por favor recarga esta página para ver los datos más recientes.
¡Agradecemos que nos visites hasta aquí! Este sitio está diseñado para visitantes sin Javascript activado o conexiones lentas/lugares remotos.
Exención de Responsabilidad: Esta red la constituyen estaciones meteorológicas personales, cuyos datos pueden ser usados como referencia, pero no son datos oficiales como los entregados por la Dirección Meteorológica de Chile, el Servicio Meteorológico de la Armada de Chile o el Instituto de Investigaciones Agropecuarias del Ministerio de Agricultura, debido que algunas de nuestras estaciones no están dentro de los estándares de la OMM.

Observaciones recientes

Indicativo Nombre Estación Región Ailtitud msnm Hora de la Observación Temp. Hum.Rel Viento Direcc. Presión Radiación Lluvia Rocío Ráfaga
RMCL0114 Arica - Capitanía de Puerto (SERVIMET) Arica y Parinacota 8.0m 01/09/2026 04:07:49 UTC 19.4°C 82.0% 1.13m/s 188° 1017.78mb Sin datos Sin datos 16.2°C 2.21m/s
RMCL0116 Iquique - Capitanía de Puerto (SERVIMET) Tarapacá 12.0m 01/09/2026 04:07:53 UTC 19.2°C 83.0% 1.23m/s 231° 1017.82mb Sin datos Sin datos 16.2°C 2.21m/s
RMCL0071 Iquique - Lic. Bicentenario Minero - UCH Tarapacá 534.0m 17/08/2026 18:18:24 UTC 16.5°C 93.0% 1.3m/s 284° 1017.94mb 535.2W/m2 Sin datos 15.4°C 1.5m/s
RMCL0073 Alto Hospicio - Las Parcelas Tarapacá 685.0m 26/08/2026 21:08:22 UTC 17.0°C 86.0% 0.4m/s 81° 1009.85mb 119.9W/m2 Sin datos 14.7°C 1.0m/s
RMCL0173 Calama - TRX Telecom Antofagasta 2287.0m 01/09/2026 04:07:00 UTC 8.4°C 24.0% 2.7m/s 345° 1028.41mb Sin datos Sin datos -11.0°C 3.6m/s
RMCL0172 Calama - Hauka Huali Oriente Antofagasta 2250.0m 01/09/2026 04:07:00 UTC 10.0°C 21.0% 3.6m/s 253° 1015.98mb 0.1W/m2 Sin datos -11.3°C 4.1m/s
RMCL0120 Taltal - Capitanía de Puerto (SERVIMET) Antofagasta 5.0m 01/09/2026 04:08:01 UTC 17.1°C 83.0% 1.39m/s 355° 1015.28mb Sin datos Sin datos 14.2°C 1.8m/s
RMCL0121 Chañaral - Capitanía de Puerto (SERVIMET) Atacama 8.0m 01/09/2026 04:07:44 UTC 16.9°C 70.0% 0.67m/s Sin datos 1018.39mb Sin datos Sin datos 11.4°C 1.8m/s
RMCL0122 Caldera - Capitanía de Puerto (SERVIMET) Atacama 6.0m 01/09/2026 04:07:56 UTC 15.5°C 58.0% 0.46m/s 190° 1017.51mb Sin datos Sin datos 7.3°C 1.34m/s
RMCL0165 Copiapó Atacama 510.0m 01/09/2026 04:06:00 UTC 15.5°C 62.0% 0.6m/s 1017.61mb Sin datos Sin datos 8.2°C 1.0m/s
RMCL0123 Huasco - Capitanía de Puerto (SERVIMET) Atacama 17.0m 01/09/2026 04:07:52 UTC 15.3°C 64.0% 1.34m/s 120° 1018.16mb Sin datos Sin datos 8.5°C 1.34m/s
RMCL0125 Coquimbo - Faro Punta Tortuga (SERVIMET) Coquimbo 25.0m 01/09/2026 04:07:54 UTC 15.8°C 64.0% 0.93m/s 108° 1021.2mb Sin datos Sin datos 9.0°C 2.68m/s
RMCL0062 La Serena - Peñuelas Coquimbo 33.0m 01/09/2026 04:08:18 UTC 11.5°C 90.0% 0.1m/s 72° 1020.73mb Sin datos Sin datos 9.9°C 0.5m/s
RMCL0183 Combarbalá - Quilitapia Coquimbo 252.0m 01/09/2026 04:05:00 UTC 9.6°C 84.0% Sin datos 213° 1016.02mb Sin datos Sin datos 7.0°C Sin datos
RMCL0127 Los Vilos - Capitanía de Puerto (SERVIMET) Coquimbo 5.0m 01/09/2026 04:07:46 UTC 13.8°C 69.0% 0.46m/s 71° 1020.19mb Sin datos Sin datos 8.2°C 1.34m/s
RMCL0124 Hanga Roa - Capitanía de Puerto (SERVIMET) Valparaíso 10.0m 01/09/2026 03:05:37 UTC 17.7°C 72.0% 3.5m/s 244° 1021.51mb Sin datos Sin datos 12.6°C 5.81m/s
RMCL0056 Pullally Valparaíso 50.0m 01/09/2026 04:07:00 UTC 9.9°C 90.0% Sin datos 112° 1019.98mb Sin datos Sin datos 8.3°C Sin datos
RMCL0010 Papudo Valparaíso 10.0m 01/09/2026 04:06:00 UTC 12.7°C 72.0% 1.4m/s 115° 1022.4mb Sin datos Sin datos 7.8°C 1.5m/s
RMCL0170 Zapallar - Catapilco Valparaíso 85.0m 01/09/2026 04:07:00 UTC 8.0°C 94.0% Sin datos 170° 1019.3mb Sin datos Sin datos 7.1°C Sin datos
RMCL0018 El Melón Valparaíso 245.0m 01/09/2026 04:15:00 UTC 9.1°C 93.0% Sin datos 200° 1022.2mb Sin datos Sin datos 8.0°C Sin datos
RMCL0128 Quintero - Capitanía de Puerto (SERVIMET) Valparaíso 10.0m 01/09/2026 04:07:54 UTC 13.4°C 69.0% 0.15m/s 1020.09mb Sin datos Sin datos 7.8°C 0.87m/s
RMCL0040 Quintero Valparaíso 56.0m 01/09/2026 04:05:00 UTC 12.4°C 94.0% 0.7m/s 21° 1016.42mb Sin datos Sin datos 11.5°C 1.0m/s
RMCL0031 La Calera - Colegio Fundadores Valparaíso 183.0m 01/09/2026 04:06:00 UTC 12.0°C 81.0% 0.3m/s 43° 1016.5mb Sin datos Sin datos 8.8°C 0.5m/s
RMCL0030 Hijuelas - Centro Valparaíso 254.0m 01/09/2026 04:15:00 UTC 10.2°C 85.0% Sin datos 71° 1021.1mb Sin datos Sin datos 7.8°C Sin datos
RMCL0045 Los Andes Valparaíso 816.0m 01/09/2026 04:10:00 UTC 10.7°C 85.0% Sin datos 44° 1023.4mb Sin datos Sin datos 8.3°C Sin datos
RMCL0182 Los Andes - Brisas de Los Andes Valparaíso 821.0m 01/09/2026 04:05:00 UTC 10.2°C 81.0% Sin datos 304° 1020.39mb Sin datos Sin datos 7.1°C Sin datos
RMCL0084 Concon - Las Pretas Valparaíso 68.0m 31/08/2026 12:08:32 UTC 11.3°C 89.0% 0.1m/s 183° 1022.72mb Sin datos Sin datos 9.6°C 0.5m/s
RMCL0037 Concón Rural - Los Eucaliptus Valparaíso 61.0m 01/09/2026 04:05:00 UTC 10.5°C 88.0% Sin datos 57° 1030.61mb Sin datos Sin datos 8.6°C Sin datos
RMCL0132 Viña del Mar - FACIMAR, Universidad de Valparaíso (SERVIMET) Valparaíso 8.0m 01/09/2026 04:00:00 UTC 15.3°C 67.4% 1.8m/s 191° 1022.1mb Sin datos Sin datos 9.3°C 2.3m/s
RMCL0079 Reñaca - Los Almendros Valparaíso 79.0m 20/08/2026 02:38:25 UTC 10.2°C 92.0% Sin datos 106° 1032.59mb Sin datos Sin datos 9.0°C Sin datos
RMCL0020 Reñaca Valparaíso 81.0m 01/09/2026 04:06:00 UTC 13.1°C 75.0% Sin datos 80° 995.1mb Sin datos Sin datos 8.8°C Sin datos
RMCL0104 Viña del Mar - Colegio Capellán Pascal Valparaíso 5.0m 01/09/2026 04:06:00 UTC 10.3°C 85.0% 1.8m/s 119° 1020.9mb Sin datos Sin datos 7.9°C 2.0m/s
RMCL0039 Viña del Mar - Santa Julia Valparaíso 220.0m 01/09/2026 04:10:00 UTC 12.9°C 70.0% 0.7m/s 50° 1022.0mb Sin datos Sin datos 7.6°C 1.0m/s
RMCL0054 Limache Valparaíso 128.0m 01/09/2026 04:07:00 UTC 10.2°C 88.0% Sin datos 268° 1022.01mb Sin datos Sin datos 8.3°C Sin datos
RMCL0131 Viña del Mar - Club de Yates Recreo (IFOP) Valparaíso 10.0m 01/09/2026 04:05:00 UTC 14.7°C 67.4% Sin datos Sin datos 1022.2mb Sin datos Sin datos 8.7°C 1.3m/s
RMCL0162 Viña del Mar - Villa Dulce Ampliación Valparaíso 247.0m 01/09/2026 04:14:00 UTC 12.5°C 64.0% 0.7m/s 199° 1022.8mb Sin datos Sin datos 5.9°C 2.0m/s
RMCL0111 Viña del Mar - Quinta Vergara Valparaíso 15.0m 01/09/2026 04:08:40 UTC 11.5°C 79.0% Sin datos 118° 1022.74mb Sin datos Sin datos 8.0°C Sin datos
RMCL0130 Valparaíso - SOCIBER (IFOP) Valparaíso 10.0m 01/09/2026 04:08:00 UTC 14.6°C 68.2% 0.3m/s 199° 1020.3mb Sin datos Sin datos 8.8°C 1.3m/s
RMCL0129 Valparaíso - Capitanía de Puerto (SERVIMET) Valparaíso 40.0m 01/09/2026 04:07:38 UTC 15.1°C 65.0% 2.78m/s 163° 1023.0mb Sin datos Sin datos 8.6°C 4.01m/s
RMCL0082 Valparaíso - Cerro Concepción Valparaíso 59.0m 01/09/2026 04:08:27 UTC 14.5°C 68.0% Sin datos 190° 1023.04mb Sin datos Sin datos 8.7°C Sin datos
RMCL0105 Valparaíso - Geografía PUCV Valparaíso 12.0m 04/08/2026 17:10:00 UTC 17.6°C 80.0% 0.4m/s 71° 1017.6mb 469.0W/m2 Sin datos 14.1°C 2.7m/s
RMCL0007 Quilpué - El Belloto Valparaíso 120.0m 01/09/2026 04:10:00 UTC 10.7°C 81.0% Sin datos 272° 1006.1mb Sin datos Sin datos 7.6°C Sin datos
RMCL0086 Viña del Mar - Jardín Botánico Valparaíso 32.0m 01/09/2026 04:08:29 UTC 8.4°C 93.0% Sin datos 77° 1022.46mb Sin datos Sin datos 7.3°C Sin datos
RMCL0022 Villa Alemana - Pob Guillermo Marconi Valparaíso 132.0m 01/09/2026 04:06:00 UTC 10.4°C 82.0% Sin datos 203° 1023.37mb Sin datos Sin datos 7.4°C Sin datos
RMCL0028 Villa Alemana - Peña Blanca Valparaíso 143.0m 01/09/2026 04:10:00 UTC 11.0°C 85.0% Sin datos 250° 1022.1mb Sin datos Sin datos 8.6°C Sin datos
RMCL0188 Quilpué - Colegio Los Leones Valparaíso 176.0m 01/09/2026 04:13:00 UTC 11.6°C 80.0% 0.4m/s 355° 1022.1mb Sin datos Sin datos 8.3°C 1.3m/s
RMCL0167 Placilla de Peñuelas - Salto de Agua Valparaíso 350.0m 21/08/2026 23:48:00 UTC 19.6°C 39.0% 0.6m/s 130° 975.5mb Sin datos Sin datos 5.3°C 1.0m/s
RMCL0021 Placilla de Peñuelas Valparaíso 335.0m 01/09/2026 04:10:00 UTC 10.6°C 81.0% Sin datos 137° 1037.6mb Sin datos Sin datos 7.5°C 0.5m/s
RMCL0050 Casablanca - La Playa Valparaíso 330.0m 01/09/2026 04:07:00 UTC 8.3°C 89.0% Sin datos 155° 1022.32mb Sin datos Sin datos 6.6°C Sin datos
RMCL0032 Casablanca - Centro Valparaíso 293.0m 01/09/2026 03:53:00 UTC 9.7°C 85.0% Sin datos 255° 1041.4mb Sin datos Sin datos 7.3°C Sin datos
RMCL0088 Quilaicillo Valparaíso 242.0m 26/08/2026 21:18:31 UTC 12.7°C 98.0% 1.1m/s 327° 1007.42mb 58.5W/m2 Sin datos 12.4°C 1.5m/s
RMCL0133 San Antonio - Faro Punta Panul (SERVIMET) Valparaíso 90.0m 13/08/2026 07:53:18 UTC 13.7°C 71.0% 9.41m/s 321° 1013.58mb 202.0W/m2 Sin datos 8.5°C 12.5m/s
RMCL0126 Juan Fernández - Capitanía de Puerto (SERVIMET) Valparaíso 23.0m 01/09/2026 04:07:52 UTC 13.9°C 86.0% 1.54m/s 172° 1020.02mb Sin datos Sin datos 11.6°C 2.21m/s
RMCL0029 Tiltil Metropolitana de Santiago 590.0m 01/09/2026 04:08:25 UTC 9.1°C 85.0% Sin datos 218° 1020.6mb Sin datos Sin datos 6.7°C Sin datos
RMCL0034 Lo Barnechea - San Enrique Metropolitana de Santiago 900.0m 01/09/2026 04:07:00 UTC 10.0°C 78.0% 0.8m/s 258° 1017.61mb Sin datos Sin datos 6.3°C 1.3m/s
RMCL0026 Vitacura RGVB Metropolitana de Santiago 790.0m 01/09/2026 04:08:00 UTC 5.6°C 60.0% 1.7m/s 71° 1020.01mb Sin datos Sin datos -1.5°C 2.0m/s
RMCL0101 Independencia - UCH Metropolitana de Santiago 532.0m 01/09/2026 04:08:38 UTC 11.3°C 83.0% Sin datos 28° Sin datos Sin datos Sin datos 8.5°C Sin datos
RMCL0187 Las Condes - La Reconquista Metropolitana de Santiago 683.0m 01/09/2026 04:08:41 UTC 11.5°C 74.0% 0.6m/s 93° 1024.97mb Sin datos Sin datos 7.1°C 1.4m/s
RMCL0093 Pudahuel Norte - UCH Metropolitana de Santiago 490.0m 01/09/2026 04:08:32 UTC 10.3°C 87.0% Sin datos 230° Sin datos Sin datos Sin datos 8.2°C Sin datos
RMCL0097 Villa Portales - UCH Metropolitana de Santiago 517.0m 01/09/2026 04:08:36 UTC 11.9°C 83.0% Sin datos 172° 1024.24mb Sin datos Sin datos 9.1°C Sin datos
RMCL0091 Ñuñoa Metropolitana de Santiago 614.0m 01/09/2026 04:08:31 UTC 10.4°C 82.0% Sin datos 347° 1025.75mb Sin datos Sin datos 7.4°C Sin datos
RMCL0109 Pudahuel Sur Metropolitana de Santiago 477.0m 01/09/2026 04:08:39 UTC 11.1°C 84.0% Sin datos 65° 1022.47mb Sin datos Sin datos 8.5°C Sin datos
RMCL0107 Ñuñoa José Domingo Cañas Metropolitana de Santiago 539.0m 01/09/2026 04:00:00 UTC 13.2°C 69.2% Sin datos Sin datos 1020.2mb Sin datos Sin datos 7.7°C 0.8m/s
RMCL0092 San Joaquin - UCH Metropolitana de Santiago 550.0m 01/09/2026 04:08:31 UTC 11.1°C 79.0% Sin datos 248° 1024.32mb Sin datos Sin datos 7.6°C Sin datos
RMCL0102 Macul - UCH Metropolitana de Santiago 567.0m 01/09/2026 04:08:39 UTC 10.6°C 83.0% Sin datos 26° 1024.72mb Sin datos Sin datos 7.8°C Sin datos
RMCL0089 Pedro Aguirre Cerda - UCH Metropolitana de Santiago 531.0m 01/09/2026 04:08:30 UTC 12.0°C 78.0% Sin datos 125° 1023.38mb Sin datos Sin datos 8.3°C Sin datos
RMCL0099 Maipú - UCH Metropolitana de Santiago 461.0m 01/09/2026 04:08:37 UTC 10.8°C 85.0% Sin datos 69° 1024.05mb Sin datos Sin datos 8.3°C Sin datos
RMCL0005 San Miguel Metropolitana de Santiago 565.0m 01/09/2026 04:14:00 UTC 12.3°C 71.0% Sin datos 68° 1021.3mb Sin datos Sin datos 7.2°C Sin datos
RMCL0059 Lo Espejo - UCH Metropolitana de Santiago 536.0m 01/09/2026 04:08:17 UTC 11.1°C 84.0% Sin datos 339° 1025.16mb Sin datos Sin datos 8.5°C Sin datos
RMCL0174 La Cisterna Norte Metropolitana de Santiago 552.0m 01/09/2026 04:08:00 UTC 12.3°C 74.0% Sin datos 188° 1029.2mb Sin datos Sin datos 7.8°C Sin datos
RMCL0095 Las Nalcas - UCH Metropolitana de Santiago 685.0m 01/09/2026 04:08:34 UTC 12.1°C 71.0% 0.8m/s 70° 1024.5mb Sin datos Sin datos 7.0°C 1.0m/s
RMCL0178 La Cisterna Sur Metropolitana de Santiago 564.0m 01/09/2026 04:07:00 UTC 12.2°C 73.0% Sin datos 65° 1019.64mb Sin datos Sin datos 7.4°C Sin datos
RMCL0100 Puente Alto - UCH Metropolitana de Santiago 677.0m 01/09/2026 04:08:37 UTC 10.3°C 78.0% Sin datos 129° 1023.93mb Sin datos Sin datos 6.6°C Sin datos
RMCL0181 San Bernardo - Madrid Osorio Metropolitana de Santiago 578.0m 01/09/2026 04:10:00 UTC 11.1°C 78.0% 0.3m/s 61° 1022.8mb 0.2W/m2 Sin datos 7.4°C 0.7m/s
RMCL0098 La Ladera - San Bernardo - UCH Metropolitana de Santiago 575.0m 01/09/2026 04:08:36 UTC 11.9°C 77.0% Sin datos 210° 1023.89mb Sin datos Sin datos 8.0°C Sin datos
RMCL0011 Pirque - El Huingan Metropolitana de Santiago 649.0m 01/09/2026 04:08:00 UTC 7.6°C 92.0% Sin datos 159° 1017.81mb Sin datos Sin datos 6.4°C Sin datos
RMCL0012 Buin Oriente Metropolitana de Santiago 500.0m 01/09/2026 04:07:00 UTC 10.7°C 87.0% Sin datos 144° 1023.4mb Sin datos Sin datos 8.6°C Sin datos
RMCL0013 Paine Oriente Metropolitana de Santiago 464.0m 01/09/2026 04:13:00 UTC 10.9°C 86.0% 1.5m/s 272° 1024.1mb Sin datos Sin datos 8.7°C 2.0m/s
RMCL0058 Paine - Las Colonias Metropolitana de Santiago 375.0m 01/09/2026 04:06:00 UTC 8.0°C 95.0% Sin datos 111° 1021.0mb Sin datos Sin datos 7.3°C Sin datos
RMCL0134 Pichilemu - Capitanía de Puerto (SERVIMET) O'Higgins 6.0m 01/09/2026 04:07:36 UTC 11.1°C 76.0% 0.36m/s 130° 1020.69mb Sin datos Sin datos 7.0°C 0.87m/s
RMCL0184 Curicó Maule 214.0m 01/09/2026 04:05:00 UTC 11.3°C 83.0% Sin datos 22° 1023.23mb Sin datos Sin datos 8.5°C Sin datos
RMCL0135 Constitución - Capitanía de Puerto (SERVIMET) Maule 8.0m 01/09/2026 04:07:47 UTC 9.7°C 87.0% 1.95m/s 117° 1021.0mb Sin datos Sin datos 7.6°C 4.01m/s
RMCL0138 Talcahuano - Faro Isla Quiriquina (SERVIMET) Biobío 75.0m 01/09/2026 04:07:00 UTC 11.0°C 93.0% 1.8m/s 147° 1022.82mb Sin datos Sin datos 9.9°C 3.1m/s
RMCL0137 Talcahuano - Capitanía de Puerto (SERVIMET) Biobío 8.0m 01/09/2026 04:07:54 UTC 11.8°C 93.0% Sin datos 236° 1022.39mb Sin datos Sin datos 10.7°C Sin datos
RMCL0136 Lirquén - Capitanía de Puerto (SERVIMET) Biobío 5.0m 01/09/2026 04:07:49 UTC 10.8°C 86.0% 1.29m/s 49° 1021.54mb Sin datos Sin datos 8.6°C 2.21m/s
RMCL0139 Hualpén - Faro Punta Hualpén (SERVIMET) Biobío 62.0m 01/09/2026 04:00:00 UTC 12.8°C 92.6% 2.3m/s 110° 1021.0mb Sin datos Sin datos 11.7°C 3.1m/s
RMCL0051 San Pedro de la Paz Biobío 15.0m 01/09/2026 04:05:00 UTC 10.6°C 99.0% Sin datos 17° 1019.44mb Sin datos Sin datos 10.5°C Sin datos
RMCL0052 Florida - San Antonio de Cuda Biobío 320.0m 01/09/2026 04:05:00 UTC 10.3°C 88.0% Sin datos Sin datos 1023.0mb Sin datos Sin datos 8.3°C Sin datos
RMCL0140 Coronel - Capitanía de Puerto (SERVIMET) Biobío 9.0m 01/09/2026 04:07:37 UTC 12.2°C 93.0% 0.87m/s 50° 1020.76mb Sin datos Sin datos 11.1°C 1.8m/s
RMCL0141 Lota - Capitanía de Puerto (SERVIMET) Biobío 8.0m 01/09/2026 04:07:58 UTC 11.7°C 93.0% 1.23m/s 1021.91mb 1782.0W/m2 Sin datos 10.6°C 1.8m/s
RMCL0006 Los Ángeles - Centro Biobío 135.0m 01/09/2026 04:05:00 UTC 10.8°C 98.0% Sin datos 120° 1021.67mb Sin datos Sin datos 10.5°C Sin datos
RMCL0004 San Antonio de Duqueco Biobío 219.0m 01/09/2026 04:08:00 UTC 9.0°C 98.0% Sin datos 11° 1020.2mb Sin datos Sin datos 8.7°C Sin datos
RMCL0142 Lebu - Capitanía de Puerto (SERVIMET) Biobío 8.0m 01/09/2026 04:07:52 UTC 13.5°C 87.0% 0.67m/s 115° 1021.85mb Sin datos Sin datos 11.4°C 1.8m/s
RMCL0009 Lonquimay - Loma Atravesada Araucanía 918.0m 01/09/2026 04:12:00 UTC 3.9°C 1.0% 1.4m/s 181° 1021.8mb Sin datos Sin datos -17.8°C 1.5m/s
RMCL0169 Curacautín - Cañón del Blanco Araucanía 850.0m 01/09/2026 04:05:00 UTC 7.8°C 94.0% 0.5m/s 12° 1013.51mb Sin datos Sin datos 6.9°C 0.5m/s
RMCL0185 Fundo Molco Araucanía 90.0m 01/09/2026 04:00:00 UTC 8.5°C 90.2% Sin datos Sin datos 1022.9mb Sin datos Sin datos 7.0°C 0.4m/s
RMCL0143 Saavedra - Capitanía de Puerto Carahue (SERVIMET) Araucanía 10.0m 01/09/2026 04:08:05 UTC 9.7°C 89.0% 1.34m/s 78° 1021.34mb Sin datos 0.2mm 8.0°C 2.21m/s
RMCL0033 Melipeuco - Río Truful-Truful Araucanía 550.0m 01/09/2026 04:05:00 UTC 7.1°C 99.0% 0.6m/s 44° 1014.56mb Sin datos Sin datos 7.0°C 1.2m/s
RMCL0008 Pitrufquén - Colegio Madres Dominicas Araucanía 110.0m 01/09/2026 04:08:05 UTC 8.6°C 91.0% 0.4m/s 294° 1024.3mb Sin datos Sin datos 7.2°C 1.3m/s
RMCL0186 Villarrica - Putue Alto Araucanía 250.0m 01/09/2026 04:08:41 UTC 7.0°C 99.0% Sin datos 135° 1024.05mb Sin datos Sin datos 6.8°C 0.6m/s
RMCL0168 Loncoche Araucanía 125.0m 01/09/2026 04:07:00 UTC 7.4°C 97.0% 0.3m/s 23° 1045.72mb Sin datos Sin datos 7.0°C 0.3m/s
RMCL0060 Valdivia - Las Minas Los Ríos 321.0m 01/09/2026 04:07:00 UTC 6.8°C 94.0% 4.1m/s 68° 1012.19mb Sin datos 0.6mm 5.9°C 4.6m/s
RMCL0180 Valdivia - Chabelita Bajo Los Ríos 240.0m 01/09/2026 04:05:00 UTC 6.9°C 99.0% 0.8m/s 269° 1030.88mb Sin datos 1.3mm 6.7°C 1.0m/s
RMCL0057 Valdivia Los Ríos 7.0m 01/09/2026 04:10:00 UTC 8.9°C 94.0% 0.3m/s 333° 1020.4mb Sin datos 0.6mm 8.0°C 1.0m/s
RMCL0144 Corral - Capitanía de Puerto (SERVIMET) Los Ríos 5.0m 01/09/2026 04:07:38 UTC 7.7°C 93.0% 2.57m/s 71° 1022.18mb Sin datos Sin datos 6.6°C 4.01m/s
RMCL0035 Mulpulmo Osorno Los Lagos 100.0m 01/09/2026 04:05:00 UTC 7.2°C 99.0% 0.9m/s 206° 1018.63mb Sin datos Sin datos 7.1°C 1.0m/s
RMCL0036 Loncotoro, Llanquihue Los Lagos 165.0m 01/09/2026 04:06:00 UTC 7.2°C 88.0% 2.3m/s Sin datos 1019.64mb Sin datos Sin datos 5.4°C 2.6m/s
RMCL0053 Puerto Varas - Reserva Santa Clara Los Lagos 110.0m 01/09/2026 04:05:00 UTC 7.2°C 88.0% 1.0m/s 186° 1023.71mb Sin datos Sin datos 5.3°C 1.0m/s
RMCL0145 Puerto Montt - Centro Meteorológico (SERVIMET) Los Lagos 7.0m 01/09/2026 04:07:59 UTC 8.3°C 89.0% 5.45m/s 319° 1021.85mb Sin datos Sin datos 6.6°C 8.95m/s
RMCL0163 Seno de Reloncaví (SERVIMET) Los Lagos 6.0m 01/09/2026 04:00:00 UTC 8.5°C 87.6% 1.5m/s 350° 1022.1mb Sin datos Sin datos 6.6°C 2.7m/s
RMCL0147 Maullín - Capitanía de Puerto (SERVIMET) Los Lagos 6.0m 01/09/2026 04:07:36 UTC 8.4°C 91.0% 3.4m/s 354° 1021.44mb Sin datos 0.6mm 7.0°C 4.48m/s
RMCL0148 Chacao - Alcaldía de Mar (SERVIMET) Los Lagos 10.0m 01/09/2026 04:08:05 UTC 7.9°C 89.0% 0.72m/s 323° 1020.59mb Sin datos 1.2mm 6.2°C 1.34m/s
RMCL0149 Ancud - Capitanía de Puerto (SERVIMET) Los Lagos 7.0m 01/09/2026 04:07:46 UTC 9.4°C 86.0% 0.46m/s 196° 1021.37mb Sin datos Sin datos 7.2°C 0.87m/s
RMCL0164 Isla Tabón - Alcaldía de Mar (SERVIMET) Los Lagos 24.0m 01/09/2026 04:00:00 UTC 7.9°C 92.4% 1.8m/s 326° 1021.5mb Sin datos 2.8mm 6.8°C 2.9m/s
RMCL0048 Chepu Los Lagos 20.0m 01/09/2026 04:07:00 UTC 7.1°C 96.0% 0.3m/s 113° 1010.16mb Sin datos Sin datos 6.4°C 0.3m/s
RMCL0150 Quemchi - Capitanía de Puerto (SERVIMET) Los Lagos 8.0m 01/09/2026 04:07:46 UTC 8.0°C 88.0% 1.7m/s 336° 1021.44mb Sin datos Sin datos 6.1°C 2.68m/s
RMCL0044 Dalcahue - Centro Los Lagos 16.0m 01/09/2026 04:10:00 UTC 7.6°C 30.0% Sin datos Sin datos 1020.6mb Sin datos Sin datos -8.9°C Sin datos
RMCL0047 Castro - Gamboa Los Lagos 100.0m 01/09/2026 04:07:00 UTC 5.8°C 92.0% 1.2m/s 18° 1018.29mb Sin datos Sin datos 4.6°C 1.7m/s
RMCL0151 Chonchi - Capitanía de Puerto (SERVIMET) Los Lagos 5.0m 01/09/2026 04:07:44 UTC 10.6°C 82.0% 3.96m/s 360° 1017.51mb 563.0W/m2 Sin datos 7.7°C 4.94m/s
RMCL0049 Cucao Los Lagos 10.0m 01/09/2026 04:07:00 UTC Sin datos Sin datos Sin datos Sin datos 1016.26mb Sin datos Sin datos Sin datos Sin datos
RMCL0152 Chaitén - Capitanía de Puerto (SERVIMET) Los Lagos 6.0m 01/09/2026 04:07:45 UTC 6.1°C 100.0% 1.7m/s 182° 1021.44mb Sin datos Sin datos 6.1°C 4.01m/s
RMCL0153 Quellón - Capitanía de Puerto (SERVIMET) Los Lagos 11.0m 01/09/2026 04:07:46 UTC 7.6°C 89.0% 2.73m/s 19° 1018.73mb Sin datos Sin datos 5.9°C 4.94m/s
RMCL0154 Melinka - Capitanía de Puerto (SERVIMET) Aysén 8.0m 01/09/2026 04:08:03 UTC 6.3°C 74.0% 0.31m/s 267° 1017.88mb Sin datos Sin datos 2.0°C 1.34m/s
RMCL0155 Puerto Aguirre - Capitanía de Puerto (SERVIMET) Aysén 4.0m 01/09/2026 04:08:04 UTC 6.1°C 89.0% 1.54m/s 42° 1017.92mb Sin datos Sin datos 4.4°C 3.6m/s
RMCL0156 Puerto Chacabuco - Capitanía de Puerto (SERVIMET) Aysén 6.0m 01/09/2026 04:08:02 UTC 5.6°C 84.0% 2.93m/s 236° 1016.39mb Sin datos 1.5mm 3.1°C 6.28m/s
RMCL0166 Coyhaique Alto - Sector Las Águilas Aysén 638.0m 01/09/2026 04:08:40 UTC -0.2°C 98.0% 2.2m/s 256° 1023.34mb Sin datos Sin datos -0.5°C 5.2m/s
RMCL0027 Coyhaique - Los Flamencos Aysén 376.0m 01/09/2026 04:07:00 UTC 1.3°C 92.0% Sin datos 280° 1019.2mb Sin datos 0.2mm 0.1°C Sin datos
RMCL0161 Puerto Edén - Capitanía de Puerto (SERVIMET) Magallanes y de la Antártica Chilena 6.0m 01/09/2026 04:05:54 UTC 3.1°C 92.0% 0.77m/s 274° 1010.74mb Sin datos Sin datos 1.9°C 1.34m/s
RMCL0177 Puerto Natales - Capitanía de Puerto (SERVIMET) Magallanes y de la Antártica Chilena 8.0m 01/09/2026 04:07:47 UTC 4.2°C 76.0% 5.97m/s 269° 1005.76mb Sin datos Sin datos 0.3°C 8.95m/s
RMCL0179 Faro Bahía Félix Magallanes y de la Antártica Chilena 12.0m 01/09/2026 04:07:49 UTC 3.2°C 85.0% 0.51m/s 278° 1007.59mb Sin datos Sin datos 0.9°C 1.34m/s
RMCL0157 Punta Arenas - ASMAR Magallanes (SERVIMET) Magallanes y de la Antártica Chilena 5.0m 01/09/2026 04:05:00 UTC 3.7°C 75.4% 1.0m/s 157° 1004.7mb Sin datos Sin datos -0.2°C 3.1m/s
RMCL0023 Punta Arenas - Alto Bulnes Magallanes y de la Antártica Chilena 10.0m 01/09/2026 04:06:00 UTC 2.9°C 78.0% Sin datos 225° 1003.05mb Sin datos Sin datos -0.6°C 0.3m/s
RMCL0110 Punta Arenas - Punta Carrera Magallanes y de la Antártica Chilena 60.0m 01/09/2026 04:06:00 UTC 1.0°C 86.0% 1.2m/s 270° 1000.34mb Sin datos Sin datos -1.1°C 1.7m/s
RMCL0159 Timbales - Alcaldía de Mar (SERVIMET) Magallanes y de la Antártica Chilena 10.0m 01/09/2026 04:07:43 UTC 2.6°C 81.0% 3.5m/s 288° 1001.49mb Sin datos 0.2mm -0.3°C 4.94m/s
RMCL0158 Puerto Navarino - Alcaldía de Mar (SERVIMET) Magallanes y de la Antártica Chilena 6.0m 01/09/2026 04:08:04 UTC 1.4°C 83.0% 2.47m/s 256° 1000.07mb Sin datos Sin datos -1.2°C 5.81m/s
RMCL0112 Puerto Williams - Yelcho Magallanes y de la Antártica Chilena 12.0m 01/09/2026 04:07:00 UTC 2.2°C 81.0% 0.2m/s 270° 999.32mb Sin datos Sin datos -0.8°C 0.3m/s
RMCL0160 Puerto Corriente - Alcaldía de Mar (SERVIMET) Magallanes y de la Antártica Chilena 18.0m 01/09/2026 04:08:05 UTC 1.2°C 87.0% 1.49m/s 184° 998.68mb Sin datos Sin datos -0.7°C 2.21m/s
© 2024 La Red Meteorológica Aficionada de Chile. Todos los derechos reservados.

Somos una red de meteoaficionados y profesionales de distintas áreas quienes mantenemos una red de estaciones meteorológicas automáticas (EMAs) en Chile. Acá el mapa en tiempo real de nuestra red. Puedes inscribirte tú también y ayudarnos a hacer crecer esta red. Visita nuestro Foro o encuentra más información en la Página Nosotros. Operamos desde Enero de 2019. Inscríbete y añade tu estación a nuestro sistema, sin costo para tí. Nuestra Red además comparte datos con el sistema VisMet del Centro de Ciencia del Clima y la Resiliencia (CR)2 y el sistema GEOOS.org de la Fundación San Ignacio del Huinay. En un futuro esperamos contar con más alianzas estratégicas en nuestro país. Estrenamos nuestro propio motor de observaciones meteorológicas. Agradecemos todo el apoyo en el incidente de ciberseguridad de Mayo de 2024